Time;durP1;ratioP1;P1;durP2;ratioP2;P2;SDS_P1;SDS_P2;PMS_P1;PMS_P2;Temp;Humidity;BMP_temperature;BMP_pressure;BME280_temperature;BME280_humidity;BME280_pressure;Samples;Min_cycle;Max_cycle;Signal;HPM_P1;HPM_P2
2021/09/26 00:00:21;;;;;;;7.07;4.65;;;15.10;68.10;;;14.82;53.50;95184.91;5016477;28;20250;-80
2021/09/26 00:02:48;;;;;;;6.38;5.10;;;15.20;68.30;;;14.81;53.42;95185.91;5033267;28;20315;-81
2021/09/26 00:05:16;;;;;;;9.25;5.22;;;15.10;68.30;;;14.79;53.52;95185.31;5016695;28;20196;-80
2021/09/26 00:07:43;;;;;;;5.30;4.80;;;15.10;68.50;;;14.76;53.53;95181.25;5048355;28;20673;-81
2021/09/26 00:10:13;;;;;;;6.72;5.50;;;15.10;68.40;;;14.75;53.42;95181.47;5044831;28;20188;-80
2021/09/26 00:12:42;;;;;;;6.18;5.20;;;15.10;69.10;;;14.75;53.67;95177.00;5016825;28;20196;-81
2021/09/26 00:15:20;;;;;;;7.55;5.57;;;15.10;68.70;;;14.72;53.59;95187.97;5033166;28;20192;-81
2021/09/26 00:17:48;;;;;;;7.53;5.20;;;15.00;69.00;;;14.70;53.90;95187.38;5017912;28;20222;-80
2021/09/26 00:20:19;;;;;;;7.65;5.80;;;15.00;68.80;;;14.69;53.87;95191.03;5052799;28;20245;-80
2021/09/26 00:22:46;;;;;;;5.97;5.32;;;15.00;68.90;;;14.69;53.86;95193.69;5052664;28;20229;-80
2021/09/26 00:25:15;;;;;;;7.28;5.35;;;15.10;68.90;;;14.65;53.82;95185.38;5052837;28;20208;-80
2021/09/26 00:27:42;;;;;;;6.78;5.28;;;15.00;68.80;;;14.64;54.02;95188.19;5036215;28;20227;-81
2021/09/26 00:30:14;;;;;;;6.60;5.22;;;14.90;68.70;;;14.59;54.04;95186.19;5032567;28;20654;-79
2021/09/26 00:32:45;;;;;;;6.10;4.80;;;14.90;69.00;;;14.55;53.93;95177.88;5024731;28;20211;-80
2021/09/26 00:35:16;;;;;;;7.47;5.38;;;15.00;69.30;;;14.52;54.15;95182.75;5032713;28;20196;-79
2021/09/26 00:37:43;;;;;;;8.40;5.45;;;14.90;68.70;;;14.47;54.25;95178.09;5037510;28;20204;-80
2021/09/26 00:40:11;;;;;;;6.40;5.22;;;14.90;68.90;;;14.47;54.49;95198.41;5032814;28;20223;-80
2021/09/26 00:42:38;;;;;;;5.78;4.75;;;14.80;68.90;;;14.45;53.86;95195.16;5032330;28;20234;-80
2021/09/26 00:45:07;;;;;;;7.40;5.53;;;14.80;68.90;;;14.39;54.37;95186.25;5000014;28;20238;-80
2021/09/26 00:47:34;;;;;;;6.40;5.28;;;14.80;69.00;;;14.39;54.34;95189.72;4999691;28;20304;-81
2021/09/26 00:50:03;;;;;;;7.22;4.95;;;14.70;68.90;;;14.36;54.31;95184.84;5032698;28;20227;-80
2021/09/26 00:52:31;;;;;;;6.63;5.25;;;14.70;69.20;;;14.34;54.44;95186.06;5032162;28;20242;-80
2021/09/26 00:54:58;;;;;;;8.05;5.55;;;14.70;69.10;;;14.33;54.40;95184.44;5032227;28;20220;-80
2021/09/26 00:57:25;;;;;;;6.97;5.60;;;14.70;69.20;;;14.33;54.70;95181.81;5032422;28;20244;-80
2021/09/26 00:59:52;;;;;;;7.75;5.50;;;14.70;69.30;;;14.31;54.55;95187.31;5049722;28;20188;-80
2021/09/26 01:02:19;;;;;;;9.48;5.72;;;14.70;69.40;;;14.31;54.48;95189.94;5015572;28;20715;-80
2021/09/26 01:04:47;;;;;;;7.70;5.28;;;14.60;69.40;;;14.31;54.73;95200.50;5032029;28;20567;-80
2021/09/26 01:07:37;;;;;;;7.32;5.88;;;14.60;69.60;;;14.29;54.97;95194.59;5032279;28;20322;-80
2021/09/26 01:10:10;;;;;;;6.43;5.43;;;14.60;70.30;;;14.29;55.11;95197.25;5032058;28;20204;-80
2021/09/26 01:13:05;;;;;;;7.38;5.38;;;14.60;70.20;;;14.27;55.01;95196.66;5015659;28;20732;-81
2021/09/26 01:16:00;;;;;;;6.93;5.15;;;14.50;70.10;;;14.21;54.91;95190.38;5032134;28;20739;-81
2021/09/26 01:19:11;;;;;;;7.43;5.30;;;14.50;70.50;;;14.21;55.01;95193.00;5048897;28;20197;-80
2021/09/26 01:22:01;;;;;;;6.32;5.47;;;14.50;70.30;;;14.19;55.06;95199.53;5032849;28;20212;-79
2021/09/26 01:24:46;;;;;;;7.95;5.60;;;14.50;70.30;;;14.18;54.92;95196.06;5031781;28;20279;-80
2021/09/26 01:27:25;;;;;;;7.53;5.65;;;14.50;70.10;;;14.16;55.17;95194.66;5016986;28;20270;-81
2021/09/26 01:30:21;;;;;;;6.30;5.70;;;14.50;70.60;;;14.11;55.28;95199.72;5031133;28;20204;-80
2021/09/26 01:33:05;;;;;;;6.80;5.30;;;14.50;70.60;;;14.14;55.23;95208.06;5050019;28;20214;-80
2021/09/26 01:35:35;;;;;;;7.32;5.40;;;14.50;70.70;;;14.12;55.19;95201.34;5035230;28;20558;-81
2021/09/26 01:38:18;;;;;;;6.60;5.70;;;14.50;70.00;;;14.12;55.68;95202.16;5018828;28;20291;-80
2021/09/26 01:41:11;;;;;;;6.65;5.47;;;14.40;70.00;;;14.11;55.40;95207.66;5038179;28;20215;-80
2021/09/26 01:43:41;;;;;;;8.50;5.65;;;14.50;70.20;;;14.11;55.42;95203.19;5015005;28;20290;-80
2021/09/26 01:46:20;;;;;;;8.38;5.93;;;14.40;70.20;;;14.13;55.52;95205.63;5015160;28;20303;-80
2021/09/26 01:49:04;;;;;;;8.82;6.10;;;14.40;71.00;;;14.12;55.83;95204.00;5015779;28;20188;-79
2021/09/26 01:51:41;;;;;;;9.20;6.30;;;14.40;70.80;;;14.15;55.76;95203.59;5025053;28;20759;-81
2021/09/26 01:54:12;;;;;;;12.02;6.65;;;14.50;71.40;;;14.17;55.61;95202.38;5031012;28;20203;-80
2021/09/26 01:56:44;;;;;;;9.65;5.72;;;14.50;70.80;;;14.18;55.86;95206.59;5015026;28;20270;-80
2021/09/26 01:59:14;;;;;;;8.48;6.20;;;14.50;71.20;;;14.20;55.95;95207.22;5050958;28;20203;-80
2021/09/26 02:01:43;;;;;;;7.90;6.40;;;14.50;71.00;;;14.22;55.91;95209.63;5050957;28;20306;-80
2021/09/26 02:04:14;;;;;;;9.00;6.18;;;14.50;71.00;;;14.23;55.95;95213.91;5051063;28;20294;-80
2021/09/26 02:06:42;;;;;;;8.82;6.90;;;14.50;71.00;;;14.23;55.89;95206.00;5067989;28;20288;-80
2021/09/26 02:09:12;;;;;;;7.47;6.32;;;14.50;71.00;;;14.24;55.98;95211.09;5049015;28;20195;-81
2021/09/26 02:11:41;;;;;;;9.02;6.78;;;14.50;71.10;;;14.25;56.21;95209.25;5050846;28;20769;-80
2021/09/26 02:14:09;;;;;;;8.35;6.47;;;14.40;71.00;;;14.25;56.16;95210.03;5034391;28;20199;-81
2021/09/26 02:16:36;;;;;;;8.98;6.65;;;14.50;71.10;;;14.24;56.31;95215.53;5050338;28;20755;-79
2021/09/26 02:19:05;;;;;;;11.35;6.95;;;14.50;71.00;;;14.24;56.13;95215.53;5014650;28;20294;-80
2021/09/26 02:21:32;;;;;;;10.98;7.22;;;14.50;71.20;;;14.22;56.19;95217.56;5031215;28;20293;-81
2021/09/26 02:24:01;;;;;;;7.43;6.55;;;14.50;71.10;;;14.21;56.34;95223.88;5047767;28;20196;-80
2021/09/26 02:26:29;;;;;;;8.77;7.28;;;14.50;71.40;;;14.18;56.83;95214.53;5030944;28;20239;-80
2021/09/26 02:28:56;;;;;;;9.10;6.50;;;14.50;71.40;;;14.18;56.46;95222.44;5045837;28;20256;-80
2021/09/26 02:31:24;;;;;;;9.07;7.00;;;14.40;71.20;;;14.14;56.31;95217.81;5050817;28;20304;-80
2021/09/26 02:33:52;;;;;;;9.45;7.28;;;14.40;71.20;;;14.14;56.25;95223.06;5067356;28;20187;-80
2021/09/26 02:36:21;;;;;;;9.65;7.00;;;14.40;71.30;;;14.12;56.11;95223.25;5029181;28;20592;-80
2021/09/26 02:38:48;;;;;;;8.98;7.13;;;14.40;71.30;;;14.08;56.55;95214.16;4999092;28;20196;-79
2021/09/26 02:41:53;;;;;;;9.45;6.75;;;14.50;71.40;;;14.04;56.59;95212.94;5033477;28;20216;-80
2021/09/26 02:44:34;;;;;;;11.15;7.30;;;14.40;72.20;;;14.03;56.79;95217.41;5047001;28;20203;-80
2021/09/26 02:47:13;;;;;;;7.53;6.65;;;14.30;72.10;;;14.01;56.84;95218.63;5034720;28;20218;-80
2021/09/26 02:49:41;;;;;;;8.30;6.93;;;14.40;72.40;;;14.02;56.86;95222.88;5034962;28;20262;-80
2021/09/26 02:52:12;;;;;;;9.10;7.57;;;14.30;72.30;;;14.02;57.02;95215.78;5001928;28;20215;-80
2021/09/26 02:54:41;;;;;;;9.38;7.22;;;14.40;72.30;;;14.04;56.78;95218.22;5017969;28;20544;-80
2021/09/26 02:57:10;;;;;;;11.05;7.68;;;14.40;71.90;;;14.04;56.86;95216.38;5018055;28;20612;-80
2021/09/26 02:59:39;;;;;;;8.05;7.20;;;14.30;71.80;;;14.04;57.00;95215.59;5034785;28;20204;-81
2021/09/26 03:02:07;;;;;;;10.02;7.93;;;14.30;71.70;;;14.08;57.01;95222.88;5037800;28;20269;-80
2021/09/26 03:04:46;;;;;;;8.75;7.30;;;14.40;72.10;;;14.11;57.14;95218.19;5054378;28;20673;-80
2021/09/26 03:07:14;;;;;;;9.68;7.30;;;14.30;72.70;;;14.13;56.99;95216.97;5050341;28;20242;-81
2021/09/26 03:09:41;;;;;;;9.90;7.25;;;14.30;71.90;;;14.17;56.88;95217.38;5017941;28;20206;-80
2021/09/26 03:12:15;;;;;;;9.98;7.55;;;14.30;72.00;;;14.19;57.14;95221.41;5050787;28;20694;-80
2021/09/26 03:14:42;;;;;;;11.80;7.95;;;14.40;72.80;;;14.19;56.99;95223.25;5034260;28;20216;-80
2021/09/26 03:17:10;;;;;;;8.65;7.50;;;14.40;72.20;;;14.24;57.08;95220.81;5032935;28;20220;-80
2021/09/26 03:19:38;;;;;;;9.95;7.78;;;14.50;72.20;;;14.26;57.02;95218.78;5017753;28;20204;-80
2021/09/26 03:22:06;;;;;;;9.30;8.10;;;14.50;72.40;;;14.26;57.16;95221.41;5017533;28;20252;-80
2021/09/26 03:24:34;;;;;;;9.90;7.95;;;14.40;72.30;;;14.29;57.43;95221.00;5017639;28;20561;-80
2021/09/26 03:27:03;;;;;;;10.75;7.78;;;14.50;72.50;;;14.29;57.41;95218.34;5014695;28;20235;-80
2021/09/26 03:29:34;;;;;;;9.70;7.65;;;14.50;72.70;;;14.31;57.35;95224.25;5034817;28;20720;-79
2021/09/26 03:32:02;;;;;;;9.38;7.72;;;14.50;72.60;;;14.32;57.17;95222.41;5034528;28;20240;-80
2021/09/26 03:34:30;;;;;;;8.50;7.50;;;14.50;72.60;;;14.32;57.47;95228.50;5047156;28;20242;-80
2021/09/26 03:36:57;;;;;;;12.07;8.40;;;14.50;73.40;;;14.35;57.50;95222.00;5033736;28;20224;-80
2021/09/26 03:39:24;;;;;;;9.48;8.00;;;14.50;72.70;;;14.33;57.60;95224.03;5033899;28;20282;-80
2021/09/26 03:41:51;;;;;;;11.13;8.00;;;14.50;72.70;;;14.40;57.73;95223.00;5033683;28;20244;-80
2021/09/26 03:44:18;;;;;;;9.68;7.88;;;14.60;72.80;;;14.39;57.72;95210.81;5033815;28;20192;-80
2021/09/26 03:46:45;;;;;;;11.30;7.75;;;14.70;73.00;;;14.49;57.71;95220.13;5033576;28;20243;-80
2021/09/26 03:49:12;;;;;;;10.43;8.57;;;14.60;72.90;;;14.51;57.68;95218.09;5023842;28;20227;-80
2021/09/26 03:51:39;;;;;;;11.13;8.15;;;14.60;72.90;;;14.54;57.81;95230.88;5032604;28;20311;-79
2021/09/26 03:54:08;;;;;;;9.30;7.65;;;14.60;73.00;;;14.57;57.91;95230.44;5033438;28;20555;-80
2021/09/26 03:56:36;;;;;;;9.93;8.30;;;14.70;73.00;;;14.61;57.74;95228.19;5033410;28;20715;-79
2021/09/26 03:59:03;;;;;;;11.65;8.38;;;14.70;73.10;;;14.61;57.80;95229.03;5036337;28;20194;-80
2021/09/26 04:01:30;;;;;;;8.70;7.57;;;14.80;73.10;;;14.64;57.77;95225.16;5036799;28;20402;-80
2021/09/26 04:03:57;;;;;;;9.15;7.30;;;14.80;73.10;;;14.62;58.03;95214.78;5054610;28;20196;-80
2021/09/26 04:06:25;;;;;;;12.23;7.35;;;14.80;73.10;;;14.67;57.86;95222.13;5053084;28;20247;-80
2021/09/26 04:08:52;;;;;;;16.20;8.25;;;14.80;73.00;;;14.67;57.77;95222.94;5034172;28;20214;-80
2021/09/26 04:11:20;;;;;;;9.82;7.55;;;14.90;73.00;;;14.67;57.86;95222.94;5047807;28;20223;-80
2021/09/26 04:13:47;;;;;;;9.23;7.85;;;14.80;72.80;;;14.68;57.66;95223.75;5018608;28;20415;-80
2021/09/26 04:16:15;;;;;;;10.98;6.97;;;14.80;72.90;;;14.65;57.67;95224.97;5034590;28;20696;-81
2021/09/26 04:18:42;;;;;;;8.80;6.85;;;14.90;72.80;;;14.63;57.68;95218.25;5033750;28;20199;-81
2021/09/26 04:21:10;;;;;;;9.68;7.22;;;14.90;72.80;;;14.58;57.70;95214.41;5051635;28;20254;-81
2021/09/26 04:23:37;;;;;;;8.73;6.93;;;14.80;72.70;;;14.54;57.56;95215.84;5047474;28;20239;-80
2021/09/26 04:26:04;;;;;;;8.43;7.53;;;14.80;72.70;;;14.52;57.25;95223.16;5032220;28;20212;-80
2021/09/26 04:28:31;;;;;;;9.00;7.43;;;14.70;72.60;;;14.49;57.66;95228.84;5032489;28;20196;-79
2021/09/26 04:30:58;;;;;;;9.30;8.02;;;14.80;72.80;;;14.46;57.88;95228.47;5032837;28;20220;-80
2021/09/26 04:33:25;;;;;;;11.52;8.60;;;14.70;72.80;;;14.43;58.14;95234.16;5031755;28;20554;-80
2021/09/26 04:35:53;;;;;;;10.55;8.50;;;14.70;73.80;;;14.43;58.22;95249.97;5032841;28;20247;-80
2021/09/26 04:38:20;;;;;;;11.88;9.15;;;14.70;73.10;;;14.35;58.16;95241.28;5031572;28;20200;-80
2021/09/26 04:40:47;;;;;;;10.80;8.23;;;14.70;73.20;;;14.41;58.59;95239.63;5016413;28;20254;-80
2021/09/26 04:43:14;;;;;;;9.60;7.88;;;14.70;73.20;;;14.41;58.54;95244.91;5022177;28;20219;-80
2021/09/26 04:45:42;;;;;;;10.05;8.15;;;14.70;73.20;;;14.38;58.58;95235.59;5032522;28;20220;-80
2021/09/26 04:48:09;;;;;;;11.85;8.32;;;14.60;73.10;;;14.40;58.47;95244.13;5048688;28;20203;-81
2021/09/26 04:50:37;;;;;;;11.30;8.00;;;14.60;73.20;;;14.37;58.20;95243.72;5032386;28;20224;-80
2021/09/26 04:53:05;;;;;;;9.30;7.85;;;14.60;73.20;;;14.40;58.35;95245.94;5032316;28;20192;-81
2021/09/26 04:55:32;;;;;;;9.27;7.72;;;14.70;73.50;;;14.39;58.34;95239.03;5032123;28;20282;-81
2021/09/26 04:58:00;;;;;;;9.88;8.38;;;14.70;73.60;;;14.42;58.35;95241.25;5032251;28;20235;-82
2021/09/26 05:00:27;;;;;;;11.52;8.90;;;14.60;73.50;;;14.43;58.58;95247.34;5032429;28;20230;-81
2021/09/26 05:02:56;;;;;;;10.52;8.73;;;14.60;73.60;;;14.45;58.47;95245.31;5048419;28;20242;-80
2021/09/26 05:05:24;;;;;;;12.63;8.65;;;14.70;73.90;;;14.48;58.99;95245.72;5016071;28;20195;-80
2021/09/26 05:07:51;;;;;;;9.25;8.25;;;14.70;73.90;;;14.49;58.59;95243.88;5048182;28;20204;-81
2021/09/26 05:10:19;;;;;;;11.15;9.23;;;14.70;73.80;;;14.49;58.70;95242.06;5041550;28;20192;-80
2021/09/26 05:12:46;;;;;;;10.00;8.70;;;14.70;73.90;;;14.47;58.57;95236.16;4999372;28;20203;-81
2021/09/26 05:15:13;;;;;;;12.40;8.75;;;14.70;73.80;;;14.52;58.65;95246.09;5015695;28;20207;-80
2021/09/26 05:17:40;;;;;;;9.50;8.18;;;14.70;73.90;;;14.52;58.75;95248.75;5034389;28;20548;-80
2021/09/26 05:20:09;;;;;;;9.88;8.02;;;14.70;73.90;;;14.53;58.75;95243.25;5035482;28;20195;-80
2021/09/26 05:22:38;;;;;;;12.27;8.88;;;14.70;74.00;;;14.53;58.85;95245.88;5035110;28;20211;-81
2021/09/26 05:25:06;;;;;;;10.68;8.75;;;14.70;74.00;;;14.55;58.77;95248.34;5051765;28;20195;-80
2021/09/26 05:27:33;;;;;;;12.20;9.13;;;14.70;74.20;;;14.57;59.11;95246.28;5051372;28;20325;-80
2021/09/26 05:30:02;;;;;;;10.05;8.50;;;14.80;74.30;;;14.63;59.00;95253.38;5016688;28;20728;-80
2021/09/26 05:32:29;;;;;;;10.48;8.68;;;14.80;74.40;;;14.68;59.22;95245.69;5015542;28;20208;-80
2021/09/26 05:34:58;;;;;;;11.02;9.40;;;14.80;74.50;;;14.76;58.91;95255.19;5031757;28;20239;-80
2021/09/26 05:37:25;;;;;;;12.60;9.52;;;14.80;74.70;;;14.83;59.25;95250.69;5016413;28;20698;-80
2021/09/26 05:39:53;;;;;;;9.75;8.70;;;14.90;74.80;;;14.90;58.90;95258.56;5031495;28;20253;-80
2021/09/26 05:42:22;;;;;;;10.18;9.15;;;14.90;74.80;;;14.98;59.39;95260.97;5048702;28;20639;-79
2021/09/26 05:44:50;;;;;;;12.52;9.27;;;15.00;74.90;;;15.05;59.02;95264.41;5033930;28;20222;-80
2021/09/26 05:47:18;;;;;;;11.00;9.00;;;15.00;74.90;;;15.17;59.20;95272.47;5048675;28;20290;-79
2021/09/26 05:49:45;;;;;;;12.50;9.13;;;15.10;74.90;;;15.27;58.52;95264.09;5049245;28;20203;-80
2021/09/26 05:52:12;;;;;;;12.25;8.85;;;15.20;75.00;;;15.31;59.03;95256.56;5048830;28;20696;-81
2021/09/26 05:54:41;;;;;;;10.27;8.73;;;15.20;75.00;;;15.48;58.56;95260.28;5049368;28;20246;-80
2021/09/26 05:57:09;;;;;;;11.85;8.77;;;15.30;75.10;;;15.58;59.03;95264.31;5016298;28;20693;-79
2021/09/26 05:59:40;;;;;;;12.55;8.57;;;15.40;75.20;;;15.64;58.59;95258.16;5031417;28;20199;-80
2021/09/26 06:02:10;;;;;;;10.57;8.45;;;15.50;75.00;;;15.72;59.11;95257.91;5034047;28;20697;-80
2021/09/26 06:04:38;;;;;;;12.55;8.85;;;15.60;75.00;;;15.77;59.24;95252.78;5051695;28;20195;-80
2021/09/26 06:07:06;;;;;;;11.93;8.73;;;15.60;75.00;;;15.84;59.11;95260.66;5044713;28;20246;-81
2021/09/26 06:09:33;;;;;;;10.20;8.73;;;15.70;75.00;;;15.90;59.14;95265.09;5030489;28;20222;-80
2021/09/26 06:12:00;;;;;;;11.07;8.93;;;15.80;75.00;;;15.97;58.83;95268.50;5013405;28;20219;-81
2021/09/26 06:14:28;;;;;;;11.95;9.18;;;15.80;74.90;;;16.05;58.66;95270.06;5014546;28;20210;-81
2021/09/26 06:16:55;;;;;;;14.50;9.90;;;16.00;75.00;;;16.11;58.97;95273.66;5025602;28;20215;-80
2021/09/26 06:19:22;;;;;;;11.68;9.23;;;16.00;75.00;;;16.19;58.97;95272.59;5031862;28;20200;-78
2021/09/26 06:21:49;;;;;;;10.40;8.75;;;16.10;75.00;;;16.26;58.81;95273.31;4998307;28;20234;-80
2021/09/26 06:24:16;;;;;;;12.65;9.68;;;16.10;75.00;;;16.31;58.92;95265.56;5030897;28;20309;-80
2021/09/26 06:26:43;;;;;;;13.43;9.68;;;16.20;74.90;;;16.38;58.87;95265.47;5034338;28;20212;-79
2021/09/26 06:29:11;;;;;;;12.18;9.90;;;16.30;75.00;;;16.44;59.05;95270.72;5014486;28;20227;-79
2021/09/26 06:31:40;;;;;;;15.27;9.93;;;16.30;74.80;;;16.53;58.81;95281.00;4999196;28;20314;-79
2021/09/26 06:34:08;;;;;;;11.27;9.43;;;16.40;75.00;;;16.57;58.59;95282.97;5014687;28;20290;-79
2021/09/26 06:36:35;;;;;;;10.13;9.02;;;16.40;75.00;;;16.64;58.74;95277.63;5014562;28;20318;-79
2021/09/26 06:39:03;;;;;;;10.32;9.10;;;16.50;75.00;;;16.69;58.77;95275.13;5028482;28;20254;-79
2021/09/26 06:41:30;;;;;;;11.38;9.38;;;16.60;75.00;;;16.77;58.85;95274.00;5030798;28;20302;-79
2021/09/26 06:43:57;;;;;;;11.15;9.50;;;16.60;75.00;;;16.81;58.72;95275.19;5047486;28;20343;-79
2021/09/26 06:46:24;;;;;;;11.63;10.02;;;16.70;75.00;;;16.88;58.62;95269.81;5029811;28;20685;-77
2021/09/26 06:48:52;;;;;;;11.70;9.93;;;16.70;74.90;;;16.94;58.32;95271.59;5049806;28;20727;-78
2021/09/26 06:51:19;;;;;;;10.98;9.30;;;16.90;75.00;;;17.00;58.28;95276.00;5017691;28;20306;-78
2021/09/26 06:53:46;;;;;;;11.65;9.23;;;16.90;75.00;;;17.04;58.65;95268.41;5050788;28;20206;-79
2021/09/26 06:56:14;;;;;;;12.57;9.60;;;16.90;74.90;;;17.08;58.46;95274.91;5050447;28;20215;-78
2021/09/26 06:58:41;;;;;;;12.63;9.25;;;17.00;75.00;;;17.13;58.70;95275.03;5035006;28;20229;-78
2021/09/26 07:01:10;;;;;;;9.93;8.88;;;17.00;74.90;;;17.16;58.19;95282.53;5036061;28;20307;-78
2021/09/26 07:03:38;;;;;;;10.32;8.70;;;17.00;74.70;;;17.18;58.22;95283.13;5049533;28;20216;-79
2021/09/26 07:06:05;;;;;;;10.20;9.07;;;17.00;74.60;;;17.21;58.57;95285.34;5033823;28;20225;-79
2021/09/26 07:08:33;;;;;;;12.02;9.40;;;17.10;74.80;;;17.22;58.68;95292.25;5013623;28;20238;-79
2021/09/26 07:11:00;;;;;;;11.20;9.18;;;17.10;74.80;;;17.26;58.24;95300.56;5032110;28;20254;-78
2021/09/26 07:13:27;;;;;;;13.05;9.25;;;17.20;74.80;;;17.23;58.57;95295.72;5023448;28;20229;-79
2021/09/26 07:15:55;;;;;;;10.73;8.98;;;17.20;74.70;;;17.27;58.66;95304.81;5033891;28;20727;-78
2021/09/26 07:18:22;;;;;;;10.65;9.32;;;17.20;74.80;;;17.29;58.29;95305.41;5033132;28;20187;-79
2021/09/26 07:20:49;;;;;;;13.82;9.70;;;17.30;74.80;;;17.32;58.36;95306.81;5049301;28;20216;-78
2021/09/26 07:23:16;;;;;;;11.85;9.75;;;17.30;74.80;;;17.33;58.57;95314.53;5050328;28;20246;-79
2021/09/26 07:25:43;;;;;;;14.00;10.75;;;17.20;74.80;;;17.36;58.67;95310.66;5013640;28;20261;-78
2021/09/26 07:28:10;;;;;;;11.48;9.88;;;17.30;74.80;;;17.40;58.70;95309.94;5000103;28;20197;-79
2021/09/26 07:30:38;;;;;;;11.38;9.55;;;17.30;74.90;;;17.44;58.92;95308.47;5037715;28;20299;-78
2021/09/26 07:33:05;;;;;;;10.98;9.85;;;17.30;75.00;;;17.52;58.81;95314.50;5054101;28;20195;-79
2021/09/26 07:35:33;;;;;;;10.80;9.70;;;17.40;75.00;;;17.58;58.73;95301.13;5025277;28;20314;-79
2021/09/26 07:38:00;;;;;;;11.80;9.90;;;17.40;75.10;;;17.66;58.43;95299.19;5037084;28;20235;-79
2021/09/26 07:40:27;;;;;;;12.73;10.35;;;17.50;75.10;;;17.71;58.58;95301.97;5037207;28;20211;-79
2021/09/26 07:42:54;;;;;;;13.93;10.75;;;17.50;75.10;;;17.81;58.68;95306.72;5036490;28;20257;-79
2021/09/26 07:45:21;;;;;;;13.43;10.80;;;17.50;75.10;;;17.88;58.49;95307.44;5053359;28;20192;-80
2021/09/26 07:47:49;;;;;;;13.25;10.10;;;17.60;75.30;;;17.97;58.38;95302.63;5053319;28;20626;-80
2021/09/26 07:50:16;;;;;;;12.13;10.82;;;17.70;75.30;;;18.06;58.44;95304.72;5053417;28;20274;-79
2021/09/26 07:52:43;;;;;;;13.43;10.35;;;17.70;75.30;;;18.13;58.76;95295.88;5053461;28;20203;-79
2021/09/26 07:55:11;;;;;;;16.13;12.13;;;17.80;75.30;;;18.22;58.91;95300.59;5035969;28;20210;-79
2021/09/26 07:57:38;;;;;;;14.88;12.20;;;17.90;75.50;;;18.35;58.23;95309.38;5043991;28;20219;-79
2021/09/26 08:00:06;;;;;;;15.18;11.85;;;18.00;75.50;;;18.44;58.45;95313.28;5028733;28;20223;-78
2021/09/26 08:02:41;;;;;;;16.50;11.48;;;18.00;76.20;;;18.52;58.54;95304.19;5048345;28;20640;-79
2021/09/26 08:05:09;;;;;;;18.92;13.18;;;18.10;75.50;;;18.60;58.70;95303.00;5033156;28;20200;-79
2021/09/26 08:07:38;;;;;;;40.38;13.98;;;18.20;75.60;;;18.72;58.62;95307.28;5013950;28;20192;-79
2021/09/26 08:10:08;;;;;;;105.63;19.60;;;18.30;75.60;;;18.83;58.59;95302.97;5023123;28;20220;-79
2021/09/26 08:12:36;;;;;;;38.30;16.17;;;18.40;75.70;;;18.95;58.49;95302.97;5021402;28;20246;-79
2021/09/26 08:15:05;;;;;;;62.35;17.15;;;18.60;75.70;;;19.07;58.72;95297.63;5036767;28;20558;-80
2021/09/26 08:54:17;;;;;;;18.25;12.30;;;16.80;77.60;;;16.87;63.75;95314.06;5091586;28;20566;-78
2021/09/26 08:56:46;;;;;;;17.90;13.93;;;16.80;79.40;;;17.46;63.61;95310.09;5071663;28;20228;-77
2021/09/26 09:03:23;;;;;;;20.33;13.30;;;17.50;77.80;;;18.23;61.91;95310.16;5089632;28;20585;-77
2021/09/26 09:05:54;;;;;;;17.35;13.95;;;17.80;79.10;;;18.64;61.57;95302.31;5035517;28;20226;-78
2021/09/26 09:08:24;;;;;;;18.52;13.90;;;18.00;79.00;;;19.03;60.88;95297.28;5051304;28;20226;-78
2021/09/26 09:10:56;;;;;;;20.48;14.00;;;18.30;78.70;;;19.43;60.25;95300.16;5095206;28;20222;-78
2021/09/26 09:13:40;;;;;;;31.77;14.77;;;18.60;78.30;;;19.77;59.21;95305.56;5077347;28;20202;-77
2021/09/26 09:16:13;;;;;;;86.28;17.58;;;19.00;77.90;;;20.04;59.48;95308.41;5067013;28;20284;-78
2021/09/26 09:18:56;;;;;;;23.70;14.25;;;19.20;77.40;;;20.27;58.78;95298.66;5051132;28;20290;-78
2021/09/26 09:21:30;;;;;;;16.20;12.65;;;19.50;77.20;;;20.52;58.78;95292.06;5051790;28;20627;-78
2021/09/26 09:24:10;;;;;;;24.50;13.63;;;19.70;77.00;;;20.74;58.46;95290.28;5064309;28;20541;-78
2021/09/26 09:26:38;;;;;;;17.83;13.25;;;20.00;76.40;;;20.92;57.90;95291.84;5068495;28;20218;-79
2021/09/26 09:29:07;;;;;;;17.88;13.68;;;20.20;76.50;;;21.10;57.93;95297.94;5051460;28;20203;-78
2021/09/26 09:31:46;;;;;;;16.75;13.05;;;20.40;76.20;;;21.27;57.66;95289.84;5033962;28;20223;-79
2021/09/26 09:34:33;;;;;;;14.65;13.13;;;20.50;76.00;;;21.46;57.09;95287.66;5052427;28;20583;-79
2021/09/26 09:37:15;;;;;;;14.80;12.88;;;20.70;75.60;;;21.62;56.64;95283.31;5050981;28;20219;-78
2021/09/26 09:40:15;;;;;;;14.82;11.90;;;20.90;75.40;;;21.75;56.82;95282.91;5050718;28;20199;-79
2021/09/26 09:42:48;;;;;;;21.55;12.82;;;21.10;75.20;;;21.83;56.19;95286.97;5050981;28;20681;-78
2021/09/26 09:45:22;;;;;;;18.95;12.45;;;21.20;74.90;;;21.84;56.27;95277.91;5042388;28;20699;-78
2021/09/26 09:48:16;;;;;;;13.85;12.43;;;21.40;75.10;;;21.87;56.04;95281.91;5053844;28;20219;-78
2021/09/26 09:50:56;;;;;;;14.57;10.77;;;21.50;74.30;;;21.92;56.22;95284.63;5050900;28;20219;-79
2021/09/26 09:53:41;;;;;;;13.70;12.30;;;21.50;74.30;;;21.98;56.00;95278.25;5034182;28;20579;-77
2021/09/26 09:56:22;;;;;;;15.77;11.65;;;21.60;74.20;;;22.13;56.58;95274.09;5067312;28;20262;-78
2021/09/26 09:58:58;;;;;;;15.57;11.82;;;21.60;74.50;;;22.35;56.53;95263.28;5050560;28;20614;-79
2021/09/26 10:01:39;;;;;;;13.32;11.98;;;21.80;74.70;;;22.58;55.93;95258.66;5065550;28;20221;-79
2021/09/26 10:04:09;;;;;;;12.45;11.15;;;21.90;75.20;;;22.80;56.05;95256.63;5067162;28;20194;-80
2021/09/26 10:06:42;;;;;;;15.13;12.20;;;22.10;74.80;;;23.01;55.51;95256.72;5047402;28;20313;-79
2021/09/26 10:09:24;;;;;;;13.93;12.02;;;22.30;74.60;;;23.20;54.95;95254.38;5082211;28;20206;-80
2021/09/26 10:11:59;;;;;;;12.35;11.07;;;22.40;73.80;;;23.30;54.67;95254.44;5080031;28;20312;-78
2021/09/26 10:14:33;;;;;;;29.60;12.15;;;22.60;73.40;;;23.43;54.31;95263.03;5038466;28;20203;-79
2021/09/26 10:17:04;;;;;;;13.38;12.10;;;22.70;73.20;;;23.54;54.34;95267.31;5050356;28;20262;-79
2021/09/26 10:19:37;;;;;;;22.02;11.30;;;22.80;73.10;;;23.70;54.24;95265.47;5069444;28;20192;-80
2021/09/26 10:22:05;;;;;;;12.50;11.27;;;23.00;73.20;;;23.87;54.07;95267.88;5046989;28;20216;-78
2021/09/26 10:24:36;;;;;;;18.13;10.77;;;23.10;73.20;;;24.06;53.81;95264.69;5052555;28;20659;-78
2021/09/26 10:27:07;;;;;;;13.65;11.07;;;23.30;72.80;;;24.28;53.28;95267.91;5022840;28;20694;-78
2021/09/26 10:29:36;;;;;;;12.57;10.35;;;23.50;72.70;;;24.52;53.04;95261.94;5053572;28;20199;-78
2021/09/26 10:32:07;;;;;;;137.05;19.05;;;23.60;72.80;;;24.76;53.15;95264.06;5036515;28;20218;-78
2021/09/26 10:34:36;;;;;;;15.20;11.60;;;23.80;72.50;;;24.94;52.58;95260.78;5053516;28;20696;-79
2021/09/26 10:37:12;;;;;;;11.35;10.25;;;24.00;72.30;;;25.12;51.91;95266.63;5048303;28;20602;-78
2021/09/26 10:39:42;;;;;;;10.82;9.45;;;24.20;71.90;;;25.26;51.95;95266.81;5072747;28;20187;-78
2021/09/26 10:42:17;;;;;;;12.18;9.50;;;24.30;71.60;;;25.42;51.63;95254.16;5034079;28;20226;-79
2021/09/26 10:44:49;;;;;;;11.20;9.98;;;24.50;71.40;;;25.55;51.32;95260.78;5036709;28;20562;-80
2021/09/26 10:47:26;;;;;;;12.60;9.43;;;24.70;70.90;;;25.59;50.58;95251.09;5032192;28;20270;-79
2021/09/26 10:49:57;;;;;;;10.05;9.07;;;24.90;70.00;;;25.67;50.22;95253.19;5039480;28;20176;-78
2021/09/26 10:52:30;;;;;;;19.75;9.10;;;24.90;69.70;;;25.71;50.22;95256.13;5035363;28;20248;-80
2021/09/26 10:55:24;;;;;;;13.57;8.77;;;25.10;69.80;;;25.75;50.03;95253.66;5036290;28;20664;-79
2021/09/26 10:58:00;;;;;;;9.70;8.80;;;25.10;69.40;;;25.79;49.51;95260.88;5026253;28;20224;-79
2021/09/26 11:00:53;;;;;;;9.25;8.32;;;25.20;68.30;;;25.81;49.11;95253.34;5052556;28;20214;-79
2021/09/26 11:03:33;;;;;;;8.98;8.07;;;25.20;68.10;;;25.83;48.92;95253.06;5016839;28;20205;-78
2021/09/26 11:06:28;;;;;;;8.80;8.00;;;25.30;68.00;;;25.83;49.02;95255.72;5046121;28;20245;-79
2021/09/26 11:09:00;;;;;;;11.68;8.95;;;25.40;68.10;;;25.81;48.60;95247.97;5058806;28;20200;-79